Terminal Aerodrome Forecast
Issued by NWS

Home | Current Version | Previous Version | Text Only | Print | Product List | Glossary On
Versions: 1 2 3 4 5 6 7 8 9 10 11 12 13 14 15 16 17 18 19 20 21 22
000
FTUS43 KDDC 271720
TAFHYS
TAF
KHYS 271720Z 2718/2818 04004KT P6SM BKN030
     FM271900 09007KT P6SM SCT030
     FM280000 11008KT P6SM SKC
     FM280600 10009KT P6SM OVC200
     FM280900 11010G20KT 5SM BR OVC009
     FM281200 11010G20KT 3SM BR OVC003
     FM281500 09015G25KT 2SM -RA OVC003
      AMD NOT SKED=

USA.gov is the U.S. government's official web portal to all federal, state and local government web resources and services.